createdAt,value
2019-01-11T00:00:46.561Z,33.93
2019-01-11T00:03:15.766Z,31.53
2019-01-11T00:05:44.860Z,30.70
2019-01-11T00:08:14.125Z,28.47
2019-01-11T00:10:43.465Z,33.60
2019-01-11T00:13:12.566Z,26.50
2019-01-11T00:15:41.410Z,29.47
2019-01-11T00:18:10.535Z,33.43
2019-01-11T00:20:39.282Z,29.83
2019-01-11T00:23:08.080Z,28.37
2019-01-11T00:25:37.064Z,28.47
2019-01-11T00:28:05.809Z,30.07
2019-01-11T00:30:34.513Z,29.80
2019-01-11T00:33:03.305Z,25.27
2019-01-11T00:35:32.040Z,26.23
2019-01-11T00:38:00.994Z,27.53
2019-01-11T00:40:29.793Z,31.60
2019-01-11T00:42:58.504Z,27.20
2019-01-11T00:45:27.223Z,22.90
2019-01-11T00:47:56.509Z,19.83
2019-01-11T00:50:25.244Z,23.93
2019-01-11T00:52:53.960Z,22.17
2019-01-11T00:55:22.988Z,26.57
2019-01-11T00:57:51.684Z,21.50
2019-01-11T01:00:21.618Z,23.43
2019-01-11T01:02:51.997Z,25.37
2019-01-11T01:05:20.877Z,23.03
2019-01-11T01:07:50.178Z,22.00
2019-01-11T01:10:21.176Z,24.47
2019-01-11T01:12:49.940Z,22.47
2019-01-11T01:15:19.290Z,21.33
2019-01-11T01:17:48.295Z,30.03
2019-01-11T01:20:17.518Z,22.23
2019-01-11T01:22:46.391Z,23.40
2019-01-11T01:25:15.396Z,20.20
2019-01-11T01:27:44.181Z,21.60
2019-01-11T01:30:15.249Z,24.40
2019-01-11T01:32:44.097Z,27.73
2019-01-11T01:35:13.561Z,24.10
2019-01-11T01:37:42.344Z,29.23
2019-01-11T01:40:11.896Z,28.13
2019-01-11T01:42:41.226Z,28.13
2019-01-11T01:45:12.492Z,28.80
2019-01-11T01:47:41.238Z,28.53
2019-01-11T01:50:10.338Z,28.27
2019-01-11T01:52:39.630Z,36.00
2019-01-11T01:55:09.706Z,31.43
2019-01-11T01:57:38.596Z,32.43
2019-01-11T02:00:10.318Z,38.80
2019-01-11T02:02:39.545Z,52.33
2019-01-11T02:05:08.973Z,47.23
2019-01-11T02:07:37.702Z,41.57
2019-01-11T02:10:08.488Z,38.93
2019-01-11T02:12:37.197Z,44.73
2019-01-11T02:15:06.410Z,40.73
2019-01-11T02:17:35.202Z,36.37
2019-01-11T02:20:05.392Z,37.13
2019-01-11T02:22:34.421Z,42.70
2019-01-11T02:25:03.328Z,34.40
2019-01-11T02:27:32.293Z,44.50
2019-01-11T02:30:01.029Z,44.13
2019-01-11T02:32:29.750Z,40.73
2019-01-11T02:34:58.446Z,43.87
2019-01-11T02:37:27.169Z,41.00
2019-01-11T02:39:56.382Z,44.83
2019-01-11T02:42:25.097Z,40.13
2019-01-11T02:44:53.802Z,43.80
2019-01-11T02:47:22.766Z,44.07
2019-01-11T02:49:51.716Z,44.07
2019-01-11T02:52:20.756Z,45.60
2019-01-11T02:54:49.699Z,44.80
2019-01-11T02:57:19.453Z,52.60
2019-01-11T02:59:51.186Z,47.57
2019-01-11T03:02:19.956Z,46.60
2019-01-11T03:04:48.714Z,46.60
2019-01-11T03:07:17.442Z,51.20
2019-01-11T03:09:46.171Z,50.70
2019-01-11T03:12:15.239Z,43.63
2019-01-11T03:14:44.265Z,40.23
2019-01-11T03:17:13.019Z,47.40
2019-01-11T03:19:47.712Z,48.73
2019-01-11T03:22:12.333Z,47.30
2019-01-11T03:24:42.099Z,44.97
2019-01-11T03:27:10.814Z,55.23
2019-01-11T03:29:39.532Z,48.27
2019-01-11T03:32:08.331Z,47.70
2019-01-11T03:34:44.677Z,48.20
2019-01-11T03:37:13.403Z,45.93
2019-01-11T03:39:42.113Z,46.30
2019-01-11T03:42:12.366Z,48.63
2019-01-11T03:44:41.101Z,48.90
2019-01-11T03:47:09.881Z,56.20
2019-01-11T03:49:38.937Z,47.17
2019-01-11T03:52:07.641Z,45.37
2019-01-11T03:54:36.387Z,50.70
2019-01-11T03:57:05.380Z,55.73
2019-01-11T03:59:34.090Z,51.47
2019-01-11T04:02:02.821Z,48.83
2019-01-11T04:04:31.566Z,48.83
2019-01-11T04:07:00.581Z,49.73
2019-01-11T04:09:29.542Z,50.60
2019-01-11T04:11:58.510Z,58.30
2019-01-11T04:14:27.357Z,49.00
2019-01-11T04:16:56.162Z,40.13
2019-01-11T04:19:25.495Z,47.50
2019-01-11T04:22:11.147Z,41.60
2019-01-11T04:24:55.971Z,42.60
2019-01-11T04:27:24.702Z,37.73
2019-01-11T04:29:53.434Z,35.20
2019-01-11T04:32:22.377Z,43.43
2019-01-11T04:34:51.102Z,44.67
2019-01-11T04:37:20.061Z,52.93
2019-01-11T04:39:49.257Z,39.20
2019-01-11T04:42:17.981Z,43.67
2019-01-11T04:44:46.691Z,38.70
2019-01-11T04:47:15.709Z,34.10
2019-01-11T04:49:44.484Z,41.43
2019-01-11T04:52:13.533Z,36.80
2019-01-11T04:54:42.513Z,36.60
2019-01-11T04:57:11.472Z,33.10
2019-01-11T04:59:40.458Z,38.77
2019-01-11T05:02:09.477Z,31.27
2019-01-11T05:04:38.942Z,33.10
2019-01-11T05:07:07.928Z,30.23
2019-01-11T05:09:36.627Z,36.97
2019-01-11T05:12:05.694Z,30.30
2019-01-11T05:14:34.877Z,32.27
2019-01-11T05:17:03.754Z,30.80
2019-01-11T05:19:32.722Z,23.70
2019-01-11T05:22:01.435Z,24.30
2019-01-11T05:24:30.164Z,28.93
2019-01-11T05:26:58.894Z,24.10
2019-01-11T05:29:27.866Z,24.47
2019-01-11T05:31:56.666Z,23.00
2019-01-11T05:34:25.380Z,24.90
2019-01-11T05:36:54.232Z,24.80
2019-01-11T05:39:23.009Z,22.30
2019-01-11T05:41:51.720Z,23.00
2019-01-11T05:44:20.448Z,27.70
2019-01-11T05:46:49.500Z,24.80
2019-01-11T05:49:18.489Z,26.23
2019-01-11T05:51:47.219Z,20.23
2019-01-11T05:54:15.982Z,24.30
2019-01-11T05:56:44.954Z,25.37
2019-01-11T05:59:13.667Z,28.70
2019-01-11T06:01:42.410Z,26.17
2019-01-11T06:04:30.338Z,27.50
2019-01-11T06:07:23.979Z,33.40
2019-01-11T06:09:52.887Z,37.67
2019-01-11T06:12:22.470Z,32.77
2019-01-11T06:14:51.456Z,22.47
2019-01-11T06:17:20.237Z,40.60
2019-01-11T06:19:49.489Z,28.33
2019-01-11T06:22:18.943Z,26.10
2019-01-11T06:24:47.969Z,24.97
2019-01-11T06:27:16.700Z,29.20
2019-01-11T06:29:45.922Z,41.23
2019-01-11T06:32:14.720Z,31.00
2019-01-11T06:34:43.687Z,35.80
2019-01-11T06:37:12.969Z,41.83
2019-01-11T06:39:42.194Z,34.07
2019-01-11T06:42:25.537Z,29.83
2019-01-11T06:44:54.639Z,31.80
2019-01-11T06:47:23.768Z,32.33
2019-01-11T06:49:55.849Z,31.97
2019-01-11T06:52:24.569Z,29.90
2019-01-11T06:54:53.273Z,34.37
2019-01-11T06:57:22.272Z,31.37
2019-01-11T06:59:51.255Z,30.00
2019-01-11T07:02:19.960Z,35.97
2019-01-11T07:04:48.926Z,31.83
2019-01-11T07:07:17.633Z,33.97
2019-01-11T07:09:46.367Z,29.77
2019-01-11T07:12:15.688Z,39.10
2019-01-11T07:14:51.654Z,39.30
2019-01-11T07:17:20.805Z,39.73
2019-01-11T07:19:49.514Z,33.90
2019-01-11T07:22:18.245Z,36.10
2019-01-11T07:24:47.148Z,36.80
2019-01-11T07:27:15.877Z,36.07
2019-01-11T07:29:45.247Z,31.90
2019-01-11T07:32:13.976Z,36.33
2019-01-11T07:34:43.185Z,36.10
2019-01-11T07:37:12.243Z,39.10
2019-01-11T07:39:41.368Z,46.23
2019-01-11T07:42:29.666Z,41.13
2019-01-11T07:44:59.119Z,32.93
2019-01-11T07:47:27.974Z,36.77
2019-01-11T07:49:56.689Z,42.07
2019-01-11T07:52:25.573Z,47.97
2019-01-11T07:54:55.698Z,43.57
2019-01-11T07:57:24.857Z,49.00
2019-01-11T07:59:53.854Z,42.30
2019-01-11T08:02:22.680Z,46.07
2019-01-11T08:04:51.424Z,45.00
2019-01-11T08:07:22.521Z,48.10
2019-01-11T08:09:51.293Z,36.00
2019-01-11T08:12:20.123Z,41.63
2019-01-11T08:14:48.837Z,40.50
2019-01-11T08:17:17.645Z,39.60
2019-01-11T08:19:46.438Z,46.60
2019-01-11T08:22:33.299Z,43.53
2019-01-11T08:25:04.307Z,37.93
2019-01-11T08:27:33.042Z,45.87
2019-01-11T08:30:01.788Z,42.17
2019-01-11T08:32:30.669Z,44.50
2019-01-11T08:34:59.593Z,54.50
2019-01-11T08:37:28.535Z,56.50
2019-01-11T08:39:57.257Z,59.00
2019-01-11T08:42:26.053Z,71.33
2019-01-11T08:44:55.028Z,106.17
2019-01-11T08:47:23.744Z,118.13
2019-01-11T08:49:53.001Z,180.80
2019-01-11T08:52:22.037Z,159.30
2019-01-11T08:54:50.776Z,155.07
2019-01-11T08:57:19.758Z,70.97
2019-01-11T08:59:48.511Z,126.97
2019-01-11T09:02:17.236Z,158.93
2019-01-11T09:04:46.206Z,102.87
2019-01-11T09:07:15.177Z,260.90
2019-01-11T09:09:44.171Z,179.43
2019-01-11T09:12:13.066Z,204.83
2019-01-11T09:14:48.632Z,298.80
2019-01-11T09:17:18.123Z,175.83
2019-01-11T09:19:47.118Z,140.03
2019-01-11T09:22:15.861Z,265.87
2019-01-11T09:24:45.084Z,258.37
2019-01-11T09:27:13.801Z,156.17
2019-01-11T09:29:43.825Z,182.80
2019-01-11T09:32:20.020Z,260.07
2019-01-11T09:34:49.117Z,246.07
2019-01-11T09:37:17.825Z,210.30
2019-01-11T09:39:46.535Z,144.37
2019-01-11T09:42:16.793Z,226.87
2019-01-11T09:44:45.782Z,193.23
2019-01-11T09:47:14.811Z,189.00
2019-01-11T09:49:44.204Z,263.73
2019-01-11T09:52:14.449Z,177.33
2019-01-11T09:54:43.207Z,274.13
2019-01-11T09:57:12.157Z,204.63
2019-01-11T09:59:40.970Z,202.30
2019-01-11T10:02:25.669Z,155.77
2019-01-11T10:04:54.476Z,256.07
2019-01-11T10:07:25.337Z,162.57
2019-01-11T10:09:54.550Z,254.67
2019-01-11T10:12:23.335Z,361.63
2019-01-11T10:14:52.389Z,255.97
2019-01-11T10:17:21.166Z,334.60
2019-01-11T10:19:49.897Z,199.13
2019-01-11T10:22:18.652Z,196.27
2019-01-11T10:24:47.900Z,192.33
2019-01-11T10:27:16.884Z,332.30
2019-01-11T10:29:45.858Z,197.57
2019-01-11T10:32:15.052Z,102.03
2019-01-11T10:34:43.827Z,192.57
2019-01-11T10:37:12.619Z,235.90
2019-01-11T10:39:41.679Z,176.57
2019-01-11T10:42:10.500Z,142.57
2019-01-11T10:44:39.456Z,229.90
2019-01-11T10:47:08.192Z,199.13
2019-01-11T10:49:36.985Z,192.50
2019-01-11T10:52:05.796Z,348.90
2019-01-11T10:54:40.408Z,307.50
2019-01-11T10:57:09.460Z,237.47
2019-01-11T10:59:38.489Z,319.07
2019-01-11T11:02:07.987Z,212.23
2019-01-11T11:04:37.840Z,186.57
2019-01-11T11:07:06.712Z,131.57
2019-01-11T11:09:35.740Z,147.43
2019-01-11T11:12:05.144Z,139.27
2019-01-11T11:14:34.101Z,305.40
2019-01-11T11:17:03.220Z,162.00
2019-01-11T11:19:31.961Z,176.33
2019-01-11T11:22:00.992Z,370.17
2019-01-11T11:24:29.734Z,192.83
2019-01-11T11:26:58.469Z,252.13
2019-01-11T11:29:27.476Z,408.73
2019-01-11T11:31:56.486Z,205.03
2019-01-11T11:34:27.316Z,302.20
2019-01-11T11:36:56.506Z,289.27
2019-01-11T11:39:25.786Z,353.63
2019-01-11T11:41:54.505Z,317.17
2019-01-11T11:44:23.229Z,414.67
2019-01-11T11:46:52.190Z,296.23
2019-01-11T11:49:20.945Z,291.07
2019-01-11T11:51:49.650Z,273.57
2019-01-11T11:54:18.434Z,137.53
2019-01-11T11:56:47.218Z,331.07
2019-01-11T11:59:17.433Z,244.00
2019-01-11T12:01:46.814Z,160.20
2019-01-11T12:04:15.810Z,263.80
2019-01-11T12:06:44.534Z,191.80
2019-01-11T12:09:13.503Z,224.57
2019-01-11T12:11:42.558Z,237.30
2019-01-11T12:14:14.604Z,248.80
2019-01-11T12:16:43.589Z,266.37
2019-01-11T12:19:12.292Z,318.07
2019-01-11T12:21:41.029Z,336.83
2019-01-11T12:24:09.750Z,295.23
2019-01-11T12:26:38.762Z,242.73
2019-01-11T12:29:07.731Z,199.13
2019-01-11T12:31:36.563Z,90.90
2019-01-11T12:34:05.440Z,130.07
2019-01-11T12:36:34.149Z,98.80
2019-01-11T12:39:02.879Z,98.10
2019-01-11T12:41:31.837Z,119.93
2019-01-11T12:44:00.823Z,69.73
2019-01-11T12:46:29.769Z,58.13
2019-01-11T12:48:58.496Z,85.97
2019-01-11T12:51:27.281Z,83.57
2019-01-11T12:53:56.273Z,110.63
2019-01-11T12:56:25.230Z,193.87
2019-01-11T12:58:53.961Z,349.00
2019-01-11T13:01:22.933Z,292.87
2019-01-11T13:03:51.901Z,266.47
2019-01-11T13:06:20.673Z,189.17
2019-01-11T13:08:49.396Z,271.03
2019-01-11T13:11:18.441Z,311.90
2019-01-11T13:13:47.209Z,224.23
2019-01-11T13:16:16.161Z,155.50
2019-01-11T13:18:45.268Z,108.10
2019-01-11T13:21:14.381Z,171.20
2019-01-11T13:23:43.164Z,275.70
2019-01-11T13:26:11.953Z,183.77
2019-01-11T13:28:40.652Z,139.90
2019-01-11T13:31:09.462Z,113.93
2019-01-11T13:33:38.174Z,134.20
2019-01-11T13:36:13.405Z,124.90
2019-01-11T13:38:42.873Z,118.30
2019-01-11T13:41:11.738Z,75.13
2019-01-11T13:43:40.713Z,67.70
2019-01-11T13:46:09.416Z,63.60
2019-01-11T13:48:38.120Z,86.30
2019-01-11T13:51:06.932Z,69.10
2019-01-11T13:53:35.646Z,61.97
2019-01-11T13:56:04.529Z,57.73
2019-01-11T13:58:33.487Z,114.87
2019-01-11T14:01:02.536Z,123.13
2019-01-11T14:03:31.265Z,109.13
2019-01-11T14:05:59.983Z,159.43
2019-01-11T14:08:28.781Z,178.13
2019-01-11T14:10:57.497Z,183.73
2019-01-11T14:13:27.330Z,106.90
2019-01-11T14:15:56.169Z,93.10
2019-01-11T14:18:25.150Z,70.10
2019-01-11T14:20:53.852Z,60.00
2019-01-11T14:23:22.583Z,73.77
2019-01-11T14:25:51.527Z,93.63
2019-01-11T14:28:20.252Z,75.97
2019-01-11T14:30:49.028Z,82.37
2019-01-11T14:33:17.801Z,83.70
2019-01-11T14:35:46.492Z,73.97
2019-01-11T14:38:15.302Z,94.80
2019-01-11T14:40:44.040Z,82.87
2019-01-11T14:43:12.758Z,71.90
2019-01-11T14:45:41.733Z,78.97
2019-01-11T14:48:13.287Z,72.80
2019-01-11T14:50:42.000Z,71.20
2019-01-11T14:53:11.095Z,73.50
2019-01-11T14:55:39.877Z,64.37
2019-01-11T14:58:08.926Z,69.70
2019-01-11T15:00:37.648Z,67.00
2019-01-11T15:03:06.425Z,67.70
2019-01-11T15:05:35.492Z,81.07
2019-01-11T15:08:04.414Z,91.50
2019-01-11T15:10:33.132Z,76.20
2019-01-11T15:13:02.194Z,82.27
2019-01-11T15:15:30.910Z,92.93
2019-01-11T15:17:59.611Z,72.10
2019-01-11T15:20:28.621Z,83.83
2019-01-11T15:22:57.329Z,55.57
2019-01-11T15:25:26.563Z,66.63
2019-01-11T15:27:55.743Z,80.47
2019-01-11T15:30:24.539Z,62.00
2019-01-11T15:32:53.241Z,57.67
2019-01-11T15:35:22.005Z,56.03
2019-01-11T15:37:50.885Z,73.77
2019-01-11T15:40:22.313Z,55.13
2019-01-11T15:42:51.274Z,64.50
2019-01-11T15:45:20.286Z,54.63
2019-01-11T15:47:49.341Z,62.07
2019-01-11T15:50:47.613Z,63.73
2019-01-11T15:53:16.698Z,59.10
2019-01-11T15:55:45.570Z,71.10
2019-01-11T15:58:14.561Z,54.70
2019-01-11T16:00:45.294Z,59.37
2019-01-11T16:03:14.356Z,57.43
2019-01-11T16:05:43.401Z,75.97
2019-01-11T16:08:12.134Z,90.87
2019-01-11T16:11:09.022Z,53.00
2019-01-11T16:13:55.553Z,54.57
2019-01-11T16:16:37.297Z,71.17
2019-01-11T16:19:06.135Z,64.80
2019-01-11T16:21:34.965Z,94.10
2019-01-11T16:24:04.264Z,66.83
2019-01-11T16:26:33.074Z,61.20
2019-01-11T16:29:02.060Z,54.40
2019-01-11T16:31:31.021Z,51.60
2019-01-11T16:34:00.349Z,55.33
2019-01-11T16:36:29.312Z,43.07
2019-01-11T16:38:58.294Z,52.57
2019-01-11T16:41:27.094Z,44.63
2019-01-11T16:43:55.836Z,40.07
2019-01-11T16:46:24.796Z,39.10
2019-01-11T16:48:54.455Z,42.30
2019-01-11T16:51:24.008Z,36.80
2019-01-11T16:53:52.877Z,38.80
2019-01-11T16:56:21.853Z,32.50
2019-01-11T16:58:50.660Z,32.50
2019-01-11T17:01:19.378Z,38.63
2019-01-11T17:03:48.564Z,27.23
2019-01-11T17:06:17.313Z,31.17
2019-01-11T17:08:46.265Z,28.53
2019-01-11T17:11:15.225Z,30.13
2019-01-11T17:13:44.180Z,23.73
2019-01-11T17:16:13.101Z,28.33
2019-01-11T17:18:41.814Z,30.53
2019-01-11T17:21:10.821Z,32.43
2019-01-11T17:23:39.657Z,24.20
2019-01-11T17:26:09.557Z,22.60
2019-01-11T17:28:39.036Z,24.80
2019-01-11T17:31:07.767Z,22.03
2019-01-11T17:33:37.099Z,19.57
2019-01-11T17:36:05.882Z,22.10
2019-01-11T17:38:34.873Z,22.87
2019-01-11T17:41:04.063Z,20.53
2019-01-11T17:43:32.802Z,21.30
2019-01-11T17:46:01.588Z,24.70
2019-01-11T17:48:30.477Z,24.20
2019-01-11T17:50:59.176Z,19.53
2019-01-11T17:53:27.968Z,18.33
2019-01-11T17:55:56.934Z,21.83
2019-01-11T17:58:25.681Z,21.03
2019-01-11T18:00:54.406Z,16.43
2019-01-11T18:03:23.136Z,24.80
2019-01-11T18:05:51.840Z,25.47
2019-01-11T18:08:20.561Z,22.03
2019-01-11T18:10:49.535Z,26.80
2019-01-11T18:13:18.718Z,23.53
2019-01-11T18:15:47.449Z,18.17
2019-01-11T18:18:16.420Z,23.73
2019-01-11T18:20:45.112Z,24.93
2019-01-11T18:23:14.073Z,27.47
2019-01-11T18:25:42.772Z,44.77
2019-01-11T18:28:11.481Z,29.23
2019-01-11T18:30:40.770Z,21.40
2019-01-11T18:33:09.493Z,22.83
2019-01-11T18:35:38.236Z,23.83
2019-01-11T18:38:09.241Z,17.10
2019-01-11T18:40:38.025Z,27.03
2019-01-11T18:43:07.075Z,20.07
2019-01-11T18:45:35.768Z,22.53
2019-01-11T18:48:04.755Z,24.07
2019-01-11T18:50:33.480Z,20.10
2019-01-11T18:53:02.428Z,21.23
2019-01-11T18:55:31.160Z,23.73
2019-01-11T18:57:59.852Z,27.60
2019-01-11T19:00:28.621Z,19.93
2019-01-11T19:02:57.590Z,26.57
2019-01-11T19:05:26.875Z,24.13
2019-01-11T19:07:55.823Z,31.40
2019-01-11T19:10:24.595Z,21.27
2019-01-11T19:12:53.779Z,25.40
2019-01-11T19:15:28.143Z,24.40
2019-01-11T19:17:57.209Z,23.87
2019-01-11T19:20:28.297Z,28.57
2019-01-11T19:22:57.653Z,35.07
2019-01-11T19:25:26.730Z,25.20
2019-01-11T19:27:55.465Z,21.63
2019-01-11T19:30:28.499Z,26.60
2019-01-11T19:32:57.304Z,26.70
2019-01-11T19:35:29.148Z,25.17
2019-01-11T19:37:57.998Z,25.47
2019-01-11T19:40:26.856Z,23.67
2019-01-11T19:42:55.585Z,29.43
2019-01-11T19:45:24.373Z,18.63
2019-01-11T19:47:53.167Z,20.53
2019-01-11T19:50:24.236Z,24.27
2019-01-11T19:52:53.315Z,19.13
2019-01-11T19:55:22.454Z,21.80
2019-01-11T19:57:51.573Z,23.10
2019-01-11T20:00:25.761Z,20.57
2019-01-11T20:02:54.741Z,24.67
2019-01-11T20:05:24.349Z,21.77
2019-01-11T20:07:53.332Z,19.63
2019-01-11T20:10:27.860Z,22.00
2019-01-11T20:12:56.834Z,23.00
2019-01-11T20:15:25.809Z,24.17
2019-01-11T20:17:54.901Z,25.20
2019-01-11T20:20:23.952Z,27.87
2019-01-11T20:22:52.809Z,54.53
2019-01-11T20:25:22.866Z,54.20
2019-01-11T20:27:51.840Z,23.10
2019-01-11T20:30:22.984Z,26.07
2019-01-11T20:32:51.830Z,22.50
2019-01-11T20:35:20.886Z,15.07
2019-01-11T20:37:49.765Z,36.97
2019-01-11T20:40:18.597Z,16.80
2019-01-11T20:42:49.042Z,20.43
2019-01-11T20:45:19.811Z,25.37
2019-01-11T20:47:49.458Z,16.47
2019-01-11T20:50:20.573Z,22.37
2019-01-11T20:52:49.353Z,21.23
2019-01-11T20:55:18.334Z,21.47
2019-01-11T20:57:47.218Z,28.40
2019-01-11T21:00:22.553Z,21.97
2019-01-11T21:02:51.644Z,11.53
2019-01-11T21:05:20.611Z,23.07
2019-01-11T21:07:49.447Z,14.63
2019-01-11T21:10:18.935Z,30.93
2019-01-11T21:12:47.867Z,18.27
2019-01-11T21:15:17.154Z,19.70
2019-01-11T21:17:46.001Z,16.13
2019-01-11T21:20:16.378Z,17.00
2019-01-11T21:22:45.453Z,37.00
2019-01-11T21:25:15.102Z,28.13
2019-01-11T21:27:44.275Z,23.93
2019-01-11T21:30:18.941Z,32.73
2019-01-11T21:32:47.805Z,16.37
2019-01-11T21:35:16.545Z,20.50
2019-01-11T21:37:45.654Z,21.40
2019-01-11T21:40:16.841Z,20.03
2019-01-11T21:42:46.188Z,14.27
2019-01-11T21:45:15.107Z,19.67
2019-01-11T21:47:43.897Z,17.87
2019-01-11T21:50:21.326Z,17.20
2019-01-11T21:52:50.332Z,19.47
2019-01-11T21:55:19.905Z,31.67
2019-01-11T21:57:48.989Z,19.23
2019-01-11T22:00:26.835Z,10.97
2019-01-11T22:02:55.589Z,12.30
2019-01-11T22:05:24.474Z,16.00
2019-01-11T22:07:53.201Z,15.60
2019-01-11T22:10:21.984Z,20.93
2019-01-11T22:12:50.697Z,16.63
2019-01-11T22:15:40.030Z,28.33
2019-01-11T22:18:08.738Z,14.17
2019-01-11T22:20:37.794Z,13.10
2019-01-11T22:23:06.745Z,23.40
2019-01-11T22:25:35.468Z,26.03
2019-01-11T22:28:04.339Z,17.00
2019-01-11T22:30:33.069Z,26.43
2019-01-11T22:33:01.932Z,20.73
2019-01-11T22:35:30.716Z,12.93
2019-01-11T22:37:59.607Z,20.50
2019-01-11T22:40:28.309Z,20.93
2019-01-11T22:42:59.164Z,13.70
2019-01-11T22:45:28.426Z,10.87
2019-01-11T22:47:57.167Z,10.43
2019-01-11T22:50:25.951Z,13.50
2019-01-11T22:52:54.651Z,18.50
2019-01-11T22:55:23.400Z,16.57
2019-01-11T22:57:52.208Z,18.87
2019-01-11T23:00:36.482Z,24.60
2019-01-11T23:03:09.201Z,24.37
2019-01-11T23:05:38.169Z,24.60
2019-01-11T23:08:10.532Z,19.23
2019-01-11T23:11:03.096Z,17.43
2019-01-11T23:13:32.384Z,20.97
2019-01-11T23:16:09.770Z,16.47
2019-01-11T23:18:38.488Z,13.97
2019-01-11T23:21:08.846Z,12.03
2019-01-11T23:23:37.895Z,18.80
2019-01-11T23:26:07.069Z,13.07
2019-01-11T23:28:35.809Z,19.77
2019-01-11T23:31:04.613Z,20.43
2019-01-11T23:33:33.356Z,26.03
2019-01-11T23:36:02.336Z,29.57
2019-01-11T23:38:31.277Z,15.10
2019-01-11T23:41:00.257Z,18.43
2019-01-11T23:43:28.953Z,26.63
2019-01-11T23:45:57.993Z,15.83
2019-01-11T23:48:26.699Z,18.07
2019-01-11T23:50:55.849Z,18.20
2019-01-11T23:53:24.571Z,21.87
2019-01-11T23:55:53.372Z,19.03
2019-01-11T23:58:22.328Z,17.33
